Terminal Aerodrome Forecast
Issued by NWS

Home | Current Version | Previous Version | Text Only | Print | Product List | Glossary On
Versions: 1 2 3 4 5 6 7 8 9 10 11 12 13 14
000
FTUS43 KDVN 280520
TAFBRL
TAF
KBRL 280520Z 2806/2906 28007KT P6SM BKN200
     FM280900 32008KT P6SM SCT040 BKN060
     FM281300 33010KT P6SM BKN040
     FM281700 34011G17KT P6SM BKN035
     FM281900 34013G19KT P6SM BKN045=

USA.gov is the U.S. government's official web portal to all federal, state and local government web resources and services.